Flight Track Log - Related Links

Times and Time Zones

All times are in EDT time to prevent confusion due to time zone crossing. See the SWA1653 flight status page for this flight to view local times or setup timezone preferences in your user account.

Time Position Orientation Groundspeed Altitude Reporting Facility
EDT Latitude Longitude Course Direction KTS MPH feet Rate Location/Type
Sun 07:55:33 PM 36.1686 -86.6108 51° Northeast 202 232 3,200  Level Memphis Center
Sun 07:56:35 PM 36.2047 -86.5458 55° Northeast 223 257 6,600 2,871 Climbing Memphis Center
Sun 07:58:39 PM 36.0678 -86.4842 158° South 318 366 12,100 2,710 Climbing Memphis Center
Sun 07:59:41 PM 35.9697 -86.4772 177° South 345 397 15,000 2,806 Climbing Memphis Center
Sun 08:00:43 PM 35.8686 -86.4714 177° South 353 406 17,900 2,371 Climbing Memphis Center
Sun 08:01:45 PM 35.7611 -86.4636 177° South 371 427 19,900 2,226 Climbing Memphis Center
Sun 08:02:47 PM 35.6536 -86.4503 174° South 381 438 22,500 2,129 Climbing Memphis Center
Sun 08:03:49 PM 35.5400 -86.4244 170° South 391 450 24,300 1,790 Climbing Memphis Center
Sun 08:04:51 PM 35.4289 -86.3989 169° South 407 468 26,200 1,790 Climbing Memphis Center
Sun 08:05:53 PM 35.3192 -86.3458 158° South 420 483 28,000 1,548 Climbing Memphis Center
Sun 08:06:55 PM 35.1861 -86.2875 160° South 428 493 29,400 1,583 Climbing Memphis Center
Sun 08:08:36 PM 35.0022 -86.2067 160° South 434 499 32,300 1,640 Climbing Atlanta Center
Sun 08:09:36 PM 34.8864 -86.1531 159° South 439 505 33,800 1,600 Climbing Atlanta Center
Sun 08:10:36 PM 34.7744 -86.1047 160° South 439 505 35,500 733 Climbing Atlanta Center
Sun 08:12:36 PM 34.5467 -86.0058 160° South 439 505 36,000 167 Climbing Atlanta Center
Sun 08:13:36 PM 34.4325 -85.9578 161° South 444 511 36,000  Level Atlanta Center
Sun 08:14:36 PM 34.3164 -85.9075 160° South 444 511 36,000  Level Atlanta Center
Sun 08:15:36 PM 34.2044 -85.8597 161° South 439 505 36,000  Level Atlanta Center
Sun 08:16:36 PM 34.0925 -85.8122 161° South 439 505 36,000 400 Level Atlanta Center
Sun 08:17:36 PM 33.9803 -85.7722 164° South 429 494 36,800 500 Climbing Atlanta Center
Sun 08:18:36 PM 33.8517 -85.7172 160° South 429 494 37,000 100 Climbing Atlanta Center
Sun 08:19:36 PM 33.7397 -85.6700 161° South 434 499 37,000  Level Atlanta Center
Sun 08:20:36 PM 33.6233 -85.6231 161° South 439 505 37,000  Level Atlanta Center
Sun 08:21:36 PM 33.5092 -85.5736 160° South 439 505 37,000  Level Atlanta Center
Sun 08:22:36 PM 33.3928 -85.5242 160° South 444 511 37,000  Level Atlanta Center
Sun 08:23:36 PM 33.2892 -85.4728 157° South 444 511 37,000  Level Atlanta Center
Sun 08:24:36 PM 33.1603 -85.4283 164° South 444 511 37,000  Level Atlanta Center
Sun 08:25:36 PM 33.0667 -85.3897 161° South 444 511 37,000  Level Atlanta Center
Sun 08:26:36 PM 32.9381 -85.3283 158° South 444 511 37,000  Level Atlanta Center
Sun 08:27:36 PM 32.8217 -85.2797 161° South 444 511 37,000  Level Atlanta Center
Sun 08:28:36 PM 32.7031 -85.2311 161° South 449 517 37,000  Level Atlanta Center
Sun 08:29:36 PM 32.5825 -85.1828 161° South 449 517 37,000  Level Atlanta Center
Sun 08:30:36 PM 32.4578 -85.1342 162° South 459 528 37,000  Level Atlanta Center
Sun 08:31:36 PM 32.3411 -85.0836 160° South 459 528 37,000  Level Atlanta Center
Sun 08:32:36 PM 32.2058 -85.0356 163° South 459 528 37,000  Level Atlanta Center
Sun 08:33:36 PM 32.0875 -84.9850 160° South 459 528 37,000  Level Atlanta Center
Sun 08:35:00 PM 31.9453 -84.9232 160° South  Level FlightAware Approximate
Sun 08:35:33 PM 31.8647 -84.8961 160° South 473 544 37,000  Level Jacksonville Center
Sun 08:36:32 PM 31.7444 -84.8494 162° South 461 531 37,000  Level Jacksonville Center
Sun 08:37:32 PM 31.6239 -84.7981 160° South 461 531 37,000  Level Jacksonville Center
Sun 08:38:33 PM 31.5036 -84.7494 161° South 461 531 37,000  Level Jacksonville Center
Sun 08:39:33 PM 31.3856 -84.6911 157° South 461 531 37,000  Level Jacksonville Center
Sun 08:40:32 PM 31.2714 -84.6306 156° South 466 536 37,000  Level Jacksonville Center
Sun 08:41:33 PM 31.1533 -84.5700 156° South 466 536 37,000  Level Jacksonville Center
Sun 08:42:33 PM 31.0372 -84.5122 157° South 466 536 37,000  Level Jacksonville Center
Sun 08:43:33 PM 30.9189 -84.4519 156° South 461 531 37,000  Level Jacksonville Center
Sun 08:45:32 PM 30.6864 -84.3347 156° South 456 525 37,000  Level Jacksonville Center
Sun 08:46:32 PM 30.5700 -84.2725 155° Southeast 456 525 37,000  Level Jacksonville Center
Sun 08:47:33 PM 30.4456 -84.2083 156° South 456 525 37,000  Level Jacksonville Center
Sun 08:48:32 PM 30.3314 -84.1536 158° South 451 519 37,000  Level Jacksonville Center
Sun 08:50:33 PM 30.1006 -84.0378 157° South 456 525 37,000  Level Jacksonville Center
Sun 08:51:33 PM 29.9864 -83.9814 157° South 456 525 37,000  Level Jacksonville Center
Sun 08:52:32 PM 29.8719 -83.9225 156° South 456 525 37,000  Level Jacksonville Center
Sun 08:53:32 PM 29.7597 -83.8567 153° Southeast 456 525 37,000 -331 Level Jacksonville Center
Sun 08:55:33 PM 29.5456 -83.7164 150° Southeast 452 520 36,000 -1,193 Descending Miami Center
Sun 08:56:33 PM 29.4333 -83.6483 152° Southeast 462 532 33,400 -3,050 Descending Jacksonville Center
Sun 08:57:33 PM 29.3211 -83.5761 151° Southeast 457 526 29,900 -3,429 Descending Jacksonville Center
Sun 08:58:32 PM 29.2086 -83.5039 151° Southeast 457 526 26,600 -2,150 Descending Jacksonville Center
Sun 08:59:33 PM 29.0983 -83.4344 151° Southeast 457 526 25,600 -1,000 Descending Jacksonville Center
Sun 09:00:32 PM 28.9900 -83.3650 151° Southeast 457 526 24,600 -1,059 Descending Jacksonville Center
Sun 09:01:32 PM 28.8819 -83.2956 151° Southeast 452 520 23,500 -1,100 Descending Jacksonville Center
Sun 09:02:32 PM 28.7756 -83.2289 151° Southeast 442 509 22,400 -2,157 Descending Jacksonville Center
Sun 09:04:30 PM 28.5667 -83.1000 152° Southeast 398 458 17,100 -2,597 Descending Tampa TRACON
Sun 09:06:30 PM 28.3833 -82.9833 151° Southeast 369 425 12,100 -2,097 Descending Tampa TRACON
Sun 09:07:36 PM 28.3000 -82.9333 152° Southeast 330 380 10,600 -1,429 Descending Tampa TRACON
Sun 09:08:36 PM 28.2167 -82.8833 152° Southeast 297 342 9,100 -1,412 Descending Tampa TRACON
Sun 09:09:18 PM 28.1833 -82.8333 127° Southeast 295 339 8,200 -1,167 Descending Tampa TRACON
Sun 09:10:24 PM 28.1167 -82.7667 139° Southeast 288 331 7,000 -1,286 Descending Tampa TRACON
Sun 09:11:24 PM 28.0667 -82.7000 130° Southeast 285 328 5,500 -1,000 Descending Tampa TRACON
Sun 09:12:24 PM 28.0167 -82.6333 130° Southeast 267 307 5,000 -650 Descending Tampa TRACON
Sun 09:13:24 PM 27.9500 -82.6167 168° South 228 262 4,200 -947 Descending Tampa TRACON
Sun 09:14:18 PM 27.9000 -82.6167 180° South 199 229 3,200 -1,091 Descending Tampa TRACON
Sun 09:15:25 PM 27.8833 -82.5667 111° Southeast 142 163 2,000 -1,038 Descending Tampa TRACON
Sun 09:16:31 PM 27.9167 -82.5500 24° Northeast 127 146 900 -857 Descending Tampa TRACON
Sun 09:17:31 PM 27.9500 -82.5500 360° North 127 146 200 -700 Descending Tampa TRACON

Login

Don't have an account? Register now (free) for customized features, flight alerts, and more!